Terminal Aerodrome Forecast
Issued by NWS

Home | Current Version | Previous Version | Text Only | Print | Product List | Glossary On
Versions: 1 2 3 4 5 6 7 8 9 10 11 12 13 14 15 16 17 18 19 20 21 22 23 24 25 26 27 28 29 30 31 32 33 34 35 36 37 38 39 40 41 42 43 44 45 46
000
FTUS44 KHGX 252054 AAB
TAFSGR
TAF AMD
KSGR 252054Z 2521/2618 15006KT P6SM VCTS SCT035CB SCT080 BKN120
      TEMPO 2521/2523 SHRA BKN030
     FM252300 08006KT P6SM FEW035 BKN150
     FM261200 01004KT P6SM FEW060 BKN250
     FM261500 02006KT P6SM SCT035 BKN160=

USA.gov is the U.S. government's official web portal to all federal, state and local government web resources and services.